createdAt,value
2022-11-19T00:01:07.055Z,12.90
2022-11-19T00:03:35.106Z,7.85
2022-11-19T00:06:07.169Z,26.98
2022-11-19T00:08:34.426Z,5.30
2022-11-19T00:11:09.844Z,3.08
2022-11-19T00:13:37.933Z,3.03
2022-11-19T00:16:15.095Z,4.70
2022-11-19T00:18:42.215Z,2.15
2022-11-19T00:21:10.267Z,2.50
2022-11-19T00:23:37.945Z,1.80
2022-11-19T00:26:12.028Z,1.52
2022-11-19T00:28:39.550Z,1.42
2022-11-19T00:31:11.039Z,1.23
2022-11-19T00:33:38.834Z,1.30
2022-11-19T00:36:06.984Z,1.17
2022-11-19T00:38:34.077Z,1.00
2022-11-19T00:41:01.182Z,1.50
2022-11-19T00:43:47.152Z,1.50
2022-11-19T00:46:22.032Z,2.00
2022-11-19T00:48:50.030Z,2.40
2022-11-19T00:51:18.110Z,3.92
2022-11-19T00:53:45.231Z,3.13
2022-11-19T00:56:13.827Z,3.90
2022-11-19T00:58:41.136Z,6.60
2022-11-19T01:01:08.677Z,9.30
2022-11-19T01:03:36.249Z,5.25
2022-11-19T01:06:03.361Z,5.65
2022-11-19T01:08:30.548Z,5.75
2022-11-19T01:11:04.042Z,5.90
2022-11-19T01:13:37.241Z,6.28
2022-11-19T01:16:06.120Z,4.95
2022-11-19T01:18:33.299Z,9.20
2022-11-19T01:21:00.727Z,7.53
2022-11-19T01:23:27.931Z,7.07
2022-11-19T01:25:55.263Z,5.93
2022-11-19T01:28:22.401Z,8.13
2022-11-19T01:30:49.521Z,10.57
2022-11-19T01:33:16.727Z,8.95
2022-11-19T01:35:44.105Z,5.38
2022-11-19T01:38:11.265Z,7.25
2022-11-19T01:40:42.093Z,6.70
2022-11-19T01:43:13.147Z,7.65
2022-11-19T01:45:41.992Z,5.10
2022-11-19T01:48:09.168Z,3.75
2022-11-19T01:50:39.903Z,4.63
2022-11-19T01:53:09.364Z,4.35
2022-11-19T01:55:37.256Z,4.10
2022-11-19T01:58:04.433Z,4.30
2022-11-19T02:00:31.606Z,3.92
2022-11-19T02:02:58.720Z,3.10
2022-11-19T02:05:26.302Z,2.80
2022-11-19T02:07:55.267Z,2.65
2022-11-19T02:10:52.030Z,2.25
2022-11-19T02:13:21.989Z,3.72
2022-11-19T02:15:54.800Z,3.20
2022-11-19T02:18:57.317Z,2.60
2022-11-19T02:21:33.458Z,3.00
2022-11-19T02:24:23.397Z,3.20
2022-11-19T02:26:50.483Z,3.50
2022-11-19T02:29:30.019Z,3.78
2022-11-19T02:31:57.140Z,4.00
2022-11-19T02:34:32.876Z,3.08
2022-11-19T02:37:20.246Z,3.63
2022-11-19T02:39:59.677Z,3.65
2022-11-19T02:42:32.792Z,3.75
2022-11-19T02:45:26.184Z,3.75
2022-11-19T02:48:05.629Z,3.90
2022-11-19T02:50:34.476Z,3.80
2022-11-19T02:53:03.269Z,3.53
2022-11-19T02:55:30.473Z,3.30
2022-11-19T02:58:10.056Z,4.00
2022-11-19T03:01:01.628Z,3.90
2022-11-19T03:03:47.737Z,4.00
2022-11-19T03:06:22.788Z,3.90
2022-11-19T03:08:49.943Z,3.40
2022-11-19T03:11:17.084Z,3.35
2022-11-19T03:14:08.618Z,3.40
2022-11-19T03:16:42.821Z,3.97
2022-11-19T03:19:18.180Z,3.33
2022-11-19T03:21:51.512Z,2.90
2022-11-19T03:24:24.329Z,2.53
2022-11-19T03:26:56.010Z,2.65
2022-11-19T03:29:26.058Z,2.47
2022-11-19T03:31:57.138Z,2.50
2022-11-19T03:34:26.041Z,2.60
2022-11-19T03:36:54.840Z,2.83
2022-11-19T03:39:22.765Z,2.85
2022-11-19T03:41:50.527Z,2.50
2022-11-19T03:44:24.207Z,2.15
2022-11-19T03:46:53.871Z,2.38
2022-11-19T03:49:23.371Z,2.30
2022-11-19T03:52:05.374Z,2.70
2022-11-19T03:54:32.642Z,2.50
2022-11-19T03:57:00.295Z,2.30
2022-11-19T03:59:30.118Z,2.72
2022-11-19T04:01:59.414Z,2.95
2022-11-19T04:04:36.833Z,2.95
2022-11-19T04:07:12.091Z,2.90
2022-11-19T04:09:40.168Z,2.47
2022-11-19T04:12:08.245Z,2.60
2022-11-19T04:14:35.352Z,2.53
2022-11-19T04:17:02.552Z,2.33
2022-11-19T04:19:29.669Z,2.80
2022-11-19T04:21:56.837Z,2.80
2022-11-19T04:24:23.980Z,2.60
2022-11-19T04:26:51.136Z,2.20
2022-11-19T04:29:18.500Z,2.85
2022-11-19T04:31:45.802Z,2.50
2022-11-19T04:34:13.041Z,2.60
2022-11-19T04:36:41.610Z,2.47
2022-11-19T04:39:09.871Z,3.20
2022-11-19T04:41:37.179Z,3.00
2022-11-19T04:44:04.405Z,2.97
2022-11-19T04:46:31.929Z,3.05
2022-11-19T04:48:59.261Z,2.97
2022-11-19T04:51:26.411Z,3.05
2022-11-19T04:53:53.501Z,3.13
2022-11-19T04:56:20.639Z,3.50
2022-11-19T04:58:47.713Z,3.88
2022-11-19T05:01:14.848Z,3.75
2022-11-19T05:03:42.013Z,3.80
2022-11-19T05:06:09.180Z,3.95
2022-11-19T05:08:36.549Z,4.72
2022-11-19T05:11:03.733Z,5.53
2022-11-19T05:13:30.976Z,4.97
2022-11-19T05:15:58.237Z,5.22
2022-11-19T05:18:25.497Z,5.55
2022-11-19T05:20:52.797Z,5.00
2022-11-19T05:23:20.562Z,5.38
2022-11-19T05:25:47.837Z,5.78
2022-11-19T05:28:14.985Z,5.50
2022-11-19T05:30:42.139Z,5.68
2022-11-19T05:33:09.243Z,5.55
2022-11-19T05:35:36.558Z,6.43
2022-11-19T05:38:03.727Z,5.90
2022-11-19T05:40:30.854Z,6.13
2022-11-19T05:42:57.986Z,6.28
2022-11-19T05:45:25.119Z,5.93
2022-11-19T05:47:55.835Z,5.63
2022-11-19T05:50:23.156Z,6.32
2022-11-19T05:52:50.296Z,6.80
2022-11-19T05:55:17.492Z,6.30
2022-11-19T05:57:44.653Z,6.65
2022-11-19T06:00:12.125Z,6.43
2022-11-19T06:02:39.474Z,6.28
2022-11-19T06:05:06.808Z,6.85
2022-11-19T06:07:33.997Z,7.07
2022-11-19T06:10:01.207Z,9.68
2022-11-19T06:12:28.328Z,7.50
2022-11-19T06:14:55.851Z,7.00
2022-11-19T06:17:23.705Z,6.90
2022-11-19T06:19:50.775Z,8.32
2022-11-19T06:22:17.875Z,7.50
2022-11-19T06:24:45.030Z,6.70
2022-11-19T06:27:12.136Z,8.13
2022-11-19T06:29:39.216Z,7.88
2022-11-19T06:32:06.337Z,10.23
2022-11-19T06:34:33.557Z,10.18
2022-11-19T06:37:00.706Z,9.35
2022-11-19T06:39:27.866Z,10.43
2022-11-19T06:42:14.945Z,8.93
2022-11-19T06:44:42.062Z,9.82
2022-11-19T06:47:09.148Z,9.70
2022-11-19T06:49:36.288Z,8.68
2022-11-19T06:52:03.390Z,8.82
2022-11-19T06:54:30.549Z,9.13
2022-11-19T06:56:57.666Z,9.45
2022-11-19T06:59:24.741Z,8.82
2022-11-19T07:01:51.883Z,8.80
2022-11-19T07:04:18.985Z,8.65
2022-11-19T07:06:46.085Z,9.15
2022-11-19T07:09:13.234Z,9.40
2022-11-19T07:11:40.374Z,8.77
2022-11-19T07:14:07.507Z,8.20
2022-11-19T07:16:36.015Z,8.90
2022-11-19T07:19:04.562Z,8.50
2022-11-19T07:21:32.638Z,7.88
2022-11-19T07:24:00.340Z,9.00
2022-11-19T07:26:27.520Z,8.80
2022-11-19T07:28:54.664Z,8.75
2022-11-19T07:31:21.748Z,10.30
2022-11-19T07:33:48.999Z,10.55
2022-11-19T07:36:18.568Z,9.98
2022-11-19T07:38:46.886Z,8.45
2022-11-19T07:41:32.646Z,8.80
2022-11-19T07:43:59.752Z,7.05
2022-11-19T07:46:26.899Z,8.07
2022-11-19T07:48:54.758Z,7.00
2022-11-19T07:51:22.229Z,7.15
2022-11-19T07:53:49.712Z,6.28
2022-11-19T07:56:17.197Z,6.70
2022-11-19T07:58:44.338Z,5.93
2022-11-19T08:01:12.525Z,6.18
2022-11-19T08:03:42.589Z,6.03
2022-11-19T08:06:10.040Z,6.25
2022-11-19T08:08:37.162Z,5.60
2022-11-19T08:11:08.643Z,5.95
2022-11-19T08:13:36.389Z,5.47
2022-11-19T08:16:04.816Z,5.45
2022-11-19T08:18:32.233Z,5.93
2022-11-19T08:21:06.880Z,5.80
2022-11-19T08:23:34.063Z,4.78
2022-11-19T08:26:01.230Z,5.65
2022-11-19T08:28:29.231Z,5.57
2022-11-19T08:30:56.380Z,4.90
2022-11-19T08:33:23.452Z,5.30
2022-11-19T08:35:55.078Z,5.03
2022-11-19T08:38:22.236Z,5.32
2022-11-19T08:41:15.504Z,4.30
2022-11-19T08:43:42.873Z,4.30
2022-11-19T08:46:10.120Z,4.10
2022-11-19T08:48:37.256Z,4.45
2022-11-19T08:51:10.089Z,4.68
2022-11-19T08:53:37.371Z,4.53
2022-11-19T08:56:05.257Z,4.57
2022-11-19T08:58:32.430Z,4.90
2022-11-19T09:00:59.786Z,4.65
2022-11-19T09:03:26.900Z,4.15
2022-11-19T09:06:00.532Z,5.30
2022-11-19T09:08:27.767Z,5.30
2022-11-19T09:10:54.837Z,4.72
2022-11-19T09:13:22.316Z,3.67
2022-11-19T09:15:49.803Z,4.35
2022-11-19T09:18:16.967Z,3.75
2022-11-19T09:20:44.167Z,3.33
2022-11-19T09:23:11.316Z,3.30
2022-11-19T09:25:38.404Z,3.47
2022-11-19T09:28:05.526Z,3.15
2022-11-19T09:30:32.619Z,3.28
2022-11-19T09:33:00.395Z,3.42
2022-11-19T09:35:27.582Z,3.03
2022-11-19T09:37:54.641Z,2.42
2022-11-19T09:40:23.588Z,2.97
2022-11-19T09:42:57.604Z,3.20
2022-11-19T09:45:46.910Z,3.65
2022-11-19T09:48:19.401Z,2.72
2022-11-19T09:50:53.596Z,3.08
2022-11-19T09:53:22.278Z,3.00
2022-11-19T09:55:50.950Z,3.10
2022-11-19T09:58:25.085Z,3.45
2022-11-19T10:00:52.275Z,3.30
2022-11-19T10:03:21.903Z,3.45
2022-11-19T10:06:07.601Z,3.35
2022-11-19T10:08:40.799Z,3.33
2022-11-19T10:11:10.981Z,3.10
2022-11-19T10:13:44.635Z,2.92
2022-11-19T10:16:11.748Z,2.97
2022-11-19T10:18:45.039Z,3.05
2022-11-19T10:21:38.369Z,3.33
2022-11-19T10:24:24.367Z,3.28
2022-11-19T10:26:55.864Z,3.10
2022-11-19T10:29:24.149Z,3.20
2022-11-19T10:31:52.075Z,2.90
2022-11-19T10:34:23.385Z,3.13
2022-11-19T10:36:57.060Z,3.30
2022-11-19T10:39:32.402Z,3.40
2022-11-19T10:42:17.752Z,4.00
2022-11-19T10:44:49.873Z,3.88
2022-11-19T10:47:20.363Z,3.22
2022-11-19T10:49:51.556Z,3.60
2022-11-19T10:52:23.653Z,3.45
2022-11-19T10:54:53.523Z,2.83
2022-11-19T10:57:22.153Z,3.30
2022-11-19T10:59:50.901Z,3.42
2022-11-19T11:02:27.782Z,3.47
2022-11-19T11:05:21.760Z,3.10
2022-11-19T11:07:51.177Z,3.30
2022-11-19T11:10:25.801Z,3.40
2022-11-19T11:13:12.195Z,3.28
2022-11-19T11:15:49.225Z,4.10
2022-11-19T11:18:16.958Z,3.22
2022-11-19T11:20:48.382Z,4.30
2022-11-19T11:23:15.500Z,3.05
2022-11-19T11:25:51.456Z,3.65
2022-11-19T11:28:19.770Z,3.20
2022-11-19T11:30:57.360Z,3.45
2022-11-19T11:33:30.642Z,3.40
2022-11-19T11:35:59.947Z,3.40
2022-11-19T11:38:27.981Z,2.92
2022-11-19T11:41:35.276Z,2.47
2022-11-19T11:44:01.372Z,2.53
2022-11-19T11:46:57.692Z,2.78
2022-11-19T11:49:24.893Z,2.75
2022-11-19T11:52:02.096Z,2.28
2022-11-19T11:54:29.267Z,3.25
2022-11-19T11:57:08.229Z,3.90
2022-11-19T11:59:35.943Z,3.30
2022-11-19T12:02:04.217Z,4.45
2022-11-19T12:04:31.676Z,4.32
2022-11-19T12:07:01.675Z,3.40
2022-11-19T12:09:34.604Z,3.25
2022-11-19T12:12:12.487Z,3.95
2022-11-19T12:14:59.479Z,3.67
2022-11-19T12:17:45.624Z,4.15
2022-11-19T12:20:31.774Z,4.05
2022-11-19T12:23:01.971Z,3.65
2022-11-19T12:25:40.259Z,4.70
2022-11-19T12:28:07.487Z,3.67
2022-11-19T12:30:40.567Z,3.60
2022-11-19T12:33:22.959Z,3.95
2022-11-19T12:35:53.014Z,2.40
2022-11-19T12:38:49.326Z,3.05
2022-11-19T12:41:25.708Z,3.35
2022-11-19T12:43:56.713Z,2.80
2022-11-19T12:46:26.632Z,3.78
2022-11-19T12:48:56.560Z,3.33
2022-11-19T12:51:44.061Z,5.45
2022-11-19T12:54:27.885Z,3.63
2022-11-19T12:57:19.109Z,3.40
2022-11-19T12:59:56.605Z,3.30
2022-11-19T13:02:26.918Z,3.28
2022-11-19T13:04:58.488Z,3.25
2022-11-19T13:07:38.389Z,4.40
2022-11-19T13:10:15.398Z,4.10
2022-11-19T13:12:44.469Z,3.80
2022-11-19T13:15:26.801Z,3.95
2022-11-19T13:17:55.955Z,3.85
2022-11-19T13:20:29.373Z,6.70
2022-11-19T13:22:59.193Z,4.45
2022-11-19T13:25:28.046Z,4.40
2022-11-19T13:27:56.950Z,16.42
2022-11-19T13:30:29.543Z,5.10
2022-11-19T13:33:05.602Z,6.40
2022-11-19T13:35:32.738Z,6.00
2022-11-19T13:38:08.196Z,5.72
2022-11-19T13:40:37.955Z,4.55
2022-11-19T13:43:32.743Z,4.68
2022-11-19T13:46:09.533Z,4.00
2022-11-19T13:48:45.694Z,4.55
2022-11-19T13:51:21.545Z,5.68
2022-11-19T13:53:48.940Z,4.90
2022-11-19T13:56:17.354Z,5.00
2022-11-19T13:58:49.342Z,5.40
2022-11-19T14:01:28.934Z,5.07
2022-11-19T14:04:02.041Z,6.25
2022-11-19T14:06:33.665Z,7.22
2022-11-19T14:09:09.779Z,7.03
2022-11-19T14:11:49.875Z,6.28
2022-11-19T14:14:41.592Z,5.97
2022-11-19T14:17:45.988Z,6.85
2022-11-19T14:20:50.503Z,6.38
2022-11-19T14:23:55.069Z,5.63
2022-11-19T14:26:40.447Z,6.28
2022-11-19T14:29:27.817Z,6.53
2022-11-19T14:32:00.994Z,7.00
2022-11-19T14:34:29.361Z,6.90
2022-11-19T14:36:58.130Z,7.75
2022-11-19T14:39:29.475Z,7.72
2022-11-19T14:42:11.954Z,7.93
2022-11-19T14:44:39.070Z,7.40
2022-11-19T14:47:33.552Z,8.68
2022-11-19T14:50:01.782Z,9.13
2022-11-19T14:52:34.549Z,8.93
2022-11-19T14:57:33.313Z,8.15
2022-11-19T15:00:02.172Z,8.68
2022-11-19T15:02:34.988Z,8.75
2022-11-19T15:07:48.910Z,8.82
2022-11-19T15:10:18.441Z,9.60
2022-11-19T15:12:48.394Z,9.93
2022-11-19T15:15:24.706Z,10.38
2022-11-19T15:18:01.973Z,9.25
2022-11-19T15:20:38.649Z,8.82
2022-11-19T15:23:17.658Z,10.85
2022-11-19T15:26:03.410Z,9.98
2022-11-19T15:28:42.734Z,13.38
2022-11-19T15:31:17.121Z,12.77
2022-11-19T15:33:44.300Z,15.52
2022-11-19T15:36:20.905Z,13.68
2022-11-19T15:39:08.225Z,14.27
2022-11-19T15:41:38.643Z,13.68
2022-11-19T15:44:09.560Z,11.68
2022-11-19T15:46:41.900Z,13.25
2022-11-19T15:49:15.449Z,17.75
2022-11-19T15:52:01.560Z,16.70
2022-11-19T15:54:32.292Z,16.65
2022-11-19T15:57:04.172Z,18.70
2022-11-19T15:59:33.433Z,22.60
2022-11-19T16:02:01.823Z,16.88
2022-11-19T16:04:35.987Z,18.40
2022-11-19T16:07:03.835Z,17.33
2022-11-19T16:09:31.225Z,11.65
2022-11-19T16:12:17.253Z,11.23
2022-11-19T16:15:08.790Z,11.55
2022-11-19T16:17:44.338Z,12.38
2022-11-19T16:20:11.817Z,11.75
2022-11-19T16:22:54.097Z,13.55
2022-11-19T16:25:26.423Z,10.90
2022-11-19T16:27:55.842Z,8.43
2022-11-19T16:30:24.297Z,8.95
2022-11-19T16:32:52.241Z,8.77
2022-11-19T16:35:24.662Z,10.43
2022-11-19T16:37:53.241Z,14.95
2022-11-19T16:40:21.201Z,7.95
2022-11-19T16:43:06.414Z,8.63
2022-11-19T16:45:33.570Z,8.35
2022-11-19T16:48:02.214Z,9.18
2022-11-19T16:50:35.873Z,7.40
2022-11-19T16:53:07.481Z,8.75
2022-11-19T16:55:34.578Z,8.10
2022-11-19T16:58:03.450Z,8.80
2022-11-19T17:00:31.941Z,9.10
2022-11-19T17:03:05.130Z,11.52
2022-11-19T17:05:51.573Z,8.73
2022-11-19T17:08:23.587Z,9.98
2022-11-19T17:11:10.616Z,10.45
2022-11-19T17:13:38.101Z,10.75
2022-11-19T17:16:18.376Z,8.10
2022-11-19T17:18:45.567Z,8.85
2022-11-19T17:21:23.384Z,9.38
2022-11-19T17:23:51.668Z,7.65
2022-11-19T17:26:23.829Z,9.38
2022-11-19T17:28:54.005Z,9.80
2022-11-19T17:31:26.258Z,8.23
2022-11-19T17:33:55.571Z,7.43
2022-11-19T17:36:22.973Z,8.25
2022-11-19T17:38:50.240Z,7.93
2022-11-19T17:41:39.631Z,7.70
2022-11-19T17:44:28.502Z,9.60
2022-11-19T17:46:55.621Z,9.05
2022-11-19T17:49:22.795Z,9.68
2022-11-19T17:51:50.806Z,14.63
2022-11-19T17:54:18.143Z,14.57
2022-11-19T17:56:45.510Z,16.33
2022-11-19T17:59:12.642Z,9.95
2022-11-19T18:01:39.821Z,8.75
2022-11-19T18:04:06.997Z,16.23
2022-11-19T18:06:34.076Z,9.70
2022-11-19T18:09:01.160Z,8.70
2022-11-19T18:11:28.299Z,9.15
2022-11-19T18:13:57.490Z,8.60
2022-11-19T18:16:26.716Z,8.25
2022-11-19T18:18:54.201Z,8.40
2022-11-19T18:21:22.999Z,8.43
2022-11-19T18:23:51.428Z,8.43
2022-11-19T18:26:19.593Z,7.55
2022-11-19T18:28:49.055Z,8.40
2022-11-19T18:31:27.322Z,6.78
2022-11-19T18:33:55.100Z,7.07
2022-11-19T18:36:22.713Z,8.02
2022-11-19T18:38:49.868Z,7.68
2022-11-19T18:41:18.982Z,6.88
2022-11-19T18:44:04.672Z,7.35
2022-11-19T18:46:31.861Z,8.27
2022-11-19T18:48:59.733Z,8.35
2022-11-19T18:51:28.104Z,8.90
2022-11-19T18:53:55.213Z,8.90
2022-11-19T18:56:22.325Z,9.98
2022-11-19T18:58:49.535Z,10.90
2022-11-19T19:01:17.220Z,12.90
2022-11-19T19:03:44.700Z,12.55
2022-11-19T19:06:12.155Z,10.40
2022-11-19T19:08:39.360Z,11.80
2022-11-19T19:11:26.476Z,10.80
2022-11-19T19:13:54.085Z,11.15
2022-11-19T19:16:21.841Z,13.45
2022-11-19T19:18:48.977Z,11.63
2022-11-19T19:21:20.605Z,12.40
2022-11-19T19:23:47.896Z,13.38
2022-11-19T19:26:16.199Z,12.15
2022-11-19T19:28:43.408Z,12.02
2022-11-19T19:31:13.681Z,11.48
2022-11-19T19:33:46.282Z,12.20
2022-11-19T19:36:13.518Z,11.52
2022-11-19T19:38:40.882Z,10.73
2022-11-19T19:41:09.133Z,11.05
2022-11-19T19:43:36.278Z,10.02
2022-11-19T19:46:07.641Z,9.48
2022-11-19T19:48:35.788Z,8.05
2022-11-19T19:51:02.971Z,9.48
2022-11-19T19:53:30.121Z,7.57
2022-11-19T19:56:04.536Z,12.23
2022-11-19T19:58:32.097Z,9.15
2022-11-19T20:01:05.365Z,10.25
2022-11-19T20:03:32.577Z,11.65
2022-11-19T20:05:59.694Z,10.45
2022-11-19T20:08:27.549Z,11.00
2022-11-19T20:10:55.435Z,9.75
2022-11-19T20:13:28.535Z,13.57
2022-11-19T20:15:56.635Z,11.85
2022-11-19T20:18:24.802Z,13.35
2022-11-19T20:20:52.330Z,13.40
2022-11-19T20:23:19.459Z,12.13
2022-11-19T20:25:46.630Z,15.00
2022-11-19T20:28:13.789Z,14.32
2022-11-19T20:30:40.987Z,15.40
2022-11-19T20:33:08.069Z,13.75
2022-11-19T20:35:35.165Z,13.18
2022-11-19T20:38:03.761Z,15.05
2022-11-19T20:40:30.916Z,14.95
2022-11-19T20:43:16.873Z,11.15
2022-11-19T20:45:44.036Z,14.68
2022-11-19T20:48:11.620Z,11.13
2022-11-19T20:50:38.696Z,12.57
2022-11-19T20:53:05.826Z,12.65
2022-11-19T20:55:32.950Z,12.63
2022-11-19T20:58:01.565Z,13.23
2022-11-19T21:00:28.716Z,12.07
2022-11-19T21:02:55.863Z,12.57
2022-11-19T21:05:23.025Z,12.07
2022-11-19T21:07:50.192Z,12.38
2022-11-19T21:10:17.398Z,12.93
2022-11-19T21:13:01.223Z,13.60
2022-11-19T21:15:28.964Z,12.35
2022-11-19T21:17:56.675Z,13.82
2022-11-19T21:20:23.801Z,13.82
2022-11-19T21:22:52.824Z,14.40
2022-11-19T21:25:19.973Z,12.77
2022-11-19T21:27:47.131Z,14.25
2022-11-19T21:30:15.256Z,14.05
2022-11-19T21:32:42.331Z,11.63
2022-11-19T21:35:09.561Z,13.32
2022-11-19T21:37:36.668Z,20.10
2022-11-19T21:40:03.894Z,15.15
2022-11-19T21:42:30.972Z,26.02
2022-11-19T21:44:58.096Z,19.20
2022-11-19T21:47:25.239Z,17.40
2022-11-19T21:49:58.904Z,13.98
2022-11-19T21:52:26.481Z,20.00
2022-11-19T21:54:53.792Z,17.00
2022-11-19T21:57:21.200Z,13.20
2022-11-19T21:59:48.273Z,13.40
2022-11-19T22:02:15.453Z,15.77
2022-11-19T22:04:42.563Z,17.70
2022-11-19T22:07:09.799Z,14.43
2022-11-19T22:09:37.038Z,16.30
2022-11-19T22:12:04.284Z,14.40
2022-11-19T22:14:31.394Z,21.48
2022-11-19T22:16:58.523Z,17.52
2022-11-19T22:19:25.760Z,18.35
2022-11-19T22:21:52.824Z,17.13
2022-11-19T22:24:20.059Z,16.13
2022-11-19T22:26:47.948Z,18.88
2022-11-19T22:29:15.065Z,30.08
2022-11-19T22:31:42.195Z,19.95
2022-11-19T22:34:09.285Z,19.75
2022-11-19T22:36:36.482Z,26.35
2022-11-19T22:39:04.105Z,19.50
2022-11-19T22:41:31.652Z,16.73
2022-11-19T22:43:59.005Z,17.40
2022-11-19T22:46:26.325Z,16.50
2022-11-19T22:48:53.446Z,16.17
2022-11-19T22:51:24.678Z,16.05
2022-11-19T22:53:52.623Z,17.70
2022-11-19T22:56:24.051Z,16.98
2022-11-19T22:58:51.189Z,17.25
2022-11-19T23:01:19.724Z,16.38
2022-11-19T23:03:47.021Z,19.05
2022-11-19T23:06:14.466Z,20.88
2022-11-19T23:08:41.744Z,17.30
2022-11-19T23:11:09.401Z,19.40
2022-11-19T23:13:39.123Z,19.88
2022-11-19T23:16:09.200Z,18.65
2022-11-19T23:18:37.455Z,19.15
2022-11-19T23:21:12.668Z,19.95
2022-11-19T23:23:40.015Z,18.98
2022-11-19T23:26:07.900Z,17.45
2022-11-19T23:28:36.319Z,17.98
2022-11-19T23:31:07.006Z,18.92
2022-11-19T23:33:34.287Z,17.77
2022-11-19T23:36:08.516Z,18.10
2022-11-19T23:38:36.589Z,17.05
2022-11-19T23:41:04.603Z,16.83
2022-11-19T23:43:32.363Z,16.75
2022-11-19T23:46:13.542Z,15.75
2022-11-19T23:48:41.585Z,15.65
2022-11-19T23:51:10.156Z,14.68
2022-11-19T23:53:37.259Z,15.77
2022-11-19T23:56:04.581Z,16.45
2022-11-19T23:58:32.187Z,14.68
